createdAt,value
2022-08-29T00:01:40.568Z,1.00
2022-08-29T00:04:09.038Z,1.00
2022-08-29T00:06:37.450Z,1.00
2022-08-29T00:09:05.947Z,1.00
2022-08-29T00:11:35.553Z,1.00
2022-08-29T00:14:08.334Z,1.00
2022-08-29T00:16:49.542Z,1.00
2022-08-29T00:19:18.225Z,1.00
2022-08-29T00:21:46.604Z,1.00
2022-08-29T00:24:15.375Z,1.00
2022-08-29T00:26:45.078Z,1.00
2022-08-29T00:29:13.354Z,1.00
2022-08-29T00:31:42.920Z,1.00
2022-08-29T00:34:11.519Z,1.00
2022-08-29T00:36:39.946Z,1.00
2022-08-29T00:39:09.325Z,1.00
2022-08-29T00:41:37.949Z,1.00
2022-08-29T00:44:07.717Z,1.00
2022-08-29T00:46:47.685Z,1.00
2022-08-29T00:49:27.231Z,1.00
2022-08-29T00:52:00.933Z,1.00
2022-08-29T00:54:29.291Z,1.00
2022-08-29T00:56:58.979Z,1.00
2022-08-29T00:59:35.715Z,1.00
2022-08-29T01:02:05.038Z,1.00
2022-08-29T01:04:34.373Z,1.00
2022-08-29T01:07:02.982Z,1.00
2022-08-29T01:09:31.771Z,1.00
2022-08-29T01:12:17.518Z,1.00
2022-08-29T01:14:52.168Z,1.00
2022-08-29T01:17:23.521Z,1.00
2022-08-29T01:19:57.650Z,1.00
2022-08-29T01:22:48.560Z,1.00
2022-08-29T01:25:20.672Z,1.00
2022-08-29T01:27:53.785Z,1.00
2022-08-29T01:30:22.115Z,1.00
2022-08-29T01:32:50.794Z,1.00
2022-08-29T01:35:19.120Z,1.00
2022-08-29T01:37:47.357Z,1.00
2022-08-29T01:40:17.155Z,1.00
2022-08-29T01:42:46.451Z,1.00
2022-08-29T01:45:14.771Z,1.00
2022-08-29T01:47:43.011Z,1.00
2022-08-29T01:50:14.474Z,1.00
2022-08-29T01:52:43.306Z,1.00
2022-08-29T01:55:11.908Z,1.00
2022-08-29T01:57:42.258Z,1.00
2022-08-29T02:00:12.827Z,1.00
2022-08-29T02:02:43.014Z,1.00
2022-08-29T02:05:11.942Z,1.00
2022-08-29T02:07:40.825Z,1.00
2022-08-29T02:10:09.813Z,1.00
2022-08-29T02:12:38.237Z,1.00
2022-08-29T02:15:08.973Z,1.00
2022-08-29T02:17:37.627Z,1.00
2022-08-29T02:20:08.308Z,1.00
2022-08-29T02:22:37.701Z,1.00
2022-08-29T02:25:27.960Z,1.00
2022-08-29T02:27:57.690Z,1.00
2022-08-29T02:30:27.532Z,1.00
2022-08-29T02:32:55.871Z,1.00
2022-08-29T02:35:24.510Z,1.00
2022-08-29T02:37:53.157Z,1.00
2022-08-29T02:40:31.519Z,1.00
2022-08-29T02:43:01.142Z,1.00
2022-08-29T02:45:31.898Z,1.00
2022-08-29T02:48:00.824Z,1.00
2022-08-29T02:50:29.605Z,1.00
2022-08-29T02:52:58.427Z,1.00
2022-08-29T02:55:27.410Z,1.00
2022-08-29T02:57:55.969Z,1.00
2022-08-29T03:00:26.598Z,1.00
2022-08-29T03:02:57.814Z,1.00
2022-08-29T03:05:28.818Z,1.00
2022-08-29T03:07:58.061Z,1.00
2022-08-29T03:10:27.184Z,1.00
2022-08-29T03:12:55.536Z,1.00
2022-08-29T03:15:24.143Z,1.00
2022-08-29T03:17:52.451Z,1.00
2022-08-29T03:20:24.543Z,1.00
2022-08-29T03:22:54.684Z,1.00
2022-08-29T03:25:24.184Z,1.00
2022-08-29T03:27:52.865Z,1.00
2022-08-29T03:30:21.692Z,1.00
2022-08-29T03:32:52.496Z,1.00
2022-08-29T03:35:23.032Z,1.00
2022-08-29T03:37:52.313Z,1.00
2022-08-29T03:40:20.813Z,1.00
2022-08-29T03:42:49.275Z,1.00
2022-08-29T03:45:19.119Z,1.00
2022-08-29T03:47:47.598Z,1.00
2022-08-29T03:50:19.291Z,1.00
2022-08-29T03:52:49.300Z,1.00
2022-08-29T03:55:17.978Z,1.00
2022-08-29T03:57:46.356Z,1.00
2022-08-29T04:00:18.116Z,1.00
2022-08-29T04:02:47.799Z,1.00
2022-08-29T04:05:18.142Z,1.00
2022-08-29T04:07:51.022Z,1.00
2022-08-29T04:10:23.114Z,1.00
2022-08-29T04:12:54.778Z,1.00
2022-08-29T04:15:24.897Z,1.00
2022-08-29T04:17:55.264Z,1.00
2022-08-29T04:20:26.506Z,1.00
2022-08-29T04:22:57.533Z,1.00
2022-08-29T04:25:27.699Z,1.00
2022-08-29T04:27:57.144Z,1.00
2022-08-29T04:30:28.107Z,1.00
2022-08-29T04:32:58.396Z,1.00
2022-08-29T04:35:26.502Z,1.00
2022-08-29T04:37:56.341Z,1.00
2022-08-29T04:40:25.014Z,1.00
2022-08-29T04:42:53.362Z,1.00
2022-08-29T04:45:24.248Z,1.00
2022-08-29T04:47:52.667Z,1.00
2022-08-29T04:50:24.124Z,1.00
2022-08-29T04:52:57.881Z,1.00
2022-08-29T04:55:26.409Z,1.00
2022-08-29T04:57:57.144Z,1.00
2022-08-29T05:00:30.225Z,1.00
2022-08-29T05:02:59.631Z,1.00
2022-08-29T05:05:28.838Z,1.00
2022-08-29T05:07:58.519Z,1.00
2022-08-29T05:10:26.824Z,1.00
2022-08-29T05:12:55.005Z,1.00
2022-08-29T05:15:23.278Z,1.00
2022-08-29T05:17:51.936Z,1.00
2022-08-29T05:20:20.844Z,1.00
2022-08-29T05:22:49.113Z,1.00
2022-08-29T05:25:19.149Z,1.00
2022-08-29T05:27:47.841Z,1.00
2022-08-29T05:30:34.846Z,1.00
2022-08-29T05:33:04.253Z,1.00
2022-08-29T05:35:33.205Z,1.00
2022-08-29T05:38:08.589Z,1.00
2022-08-29T05:40:39.824Z,1.00
2022-08-29T05:43:10.072Z,1.00
2022-08-29T05:45:38.616Z,1.00
2022-08-29T05:48:10.899Z,1.00
2022-08-29T05:50:41.806Z,1.00
2022-08-29T05:53:10.673Z,1.00
2022-08-29T05:55:42.716Z,1.00
2022-08-29T05:58:11.411Z,1.00
2022-08-29T06:00:42.598Z,1.00
2022-08-29T06:03:13.084Z,1.00
2022-08-29T06:05:42.385Z,1.00
2022-08-29T06:08:10.744Z,1.00
2022-08-29T06:10:44.938Z,1.00
2022-08-29T06:13:13.720Z,1.00
2022-08-29T06:15:45.557Z,1.00
2022-08-29T06:18:14.250Z,1.00
2022-08-29T06:20:42.816Z,1.00
2022-08-29T06:23:11.023Z,1.00
2022-08-29T06:25:40.332Z,1.00
2022-08-29T06:28:10.258Z,1.00
2022-08-29T06:30:38.791Z,1.00
2022-08-29T06:33:07.031Z,1.00
2022-08-29T06:35:35.252Z,1.00
2022-08-29T06:38:03.486Z,1.00
2022-08-29T06:40:31.886Z,1.00
2022-08-29T06:43:00.374Z,1.00
2022-08-29T06:45:30.099Z,1.00
2022-08-29T06:47:58.373Z,1.00
2022-08-29T06:50:28.338Z,1.00
2022-08-29T06:53:05.346Z,1.00
2022-08-29T06:55:44.959Z,1.00
2022-08-29T06:58:15.386Z,1.00
2022-08-29T07:00:49.569Z,1.00
2022-08-29T07:03:19.117Z,1.00
2022-08-29T07:05:52.670Z,1.00
2022-08-29T07:08:21.129Z,1.00
2022-08-29T07:10:49.362Z,1.00
2022-08-29T07:13:17.613Z,1.00
2022-08-29T07:15:47.605Z,1.00
2022-08-29T07:18:16.185Z,1.00
2022-08-29T07:20:44.922Z,1.00
2022-08-29T07:23:13.436Z,1.00
2022-08-29T07:25:41.712Z,1.00
2022-08-29T07:28:10.448Z,1.00
2022-08-29T07:30:39.049Z,1.00
2022-08-29T07:33:09.458Z,1.00
2022-08-29T07:35:37.839Z,1.00
2022-08-29T07:38:08.436Z,1.00
2022-08-29T07:40:39.183Z,1.00
2022-08-29T07:43:11.056Z,1.00
2022-08-29T07:45:42.753Z,1.00
2022-08-29T07:48:14.626Z,1.00
2022-08-29T07:50:43.829Z,1.00
2022-08-29T07:53:14.520Z,1.00
2022-08-29T07:55:42.825Z,1.00
2022-08-29T07:58:11.503Z,1.00
2022-08-29T08:00:39.930Z,1.00
2022-08-29T08:03:08.770Z,1.00
2022-08-29T08:05:39.234Z,1.00
2022-08-29T08:08:15.131Z,1.00
2022-08-29T08:10:43.778Z,1.00
2022-08-29T08:13:12.192Z,1.00
2022-08-29T08:15:40.862Z,1.00
2022-08-29T08:18:09.261Z,1.00
2022-08-29T08:20:48.165Z,1.00
2022-08-29T08:23:17.215Z,1.00
2022-08-29T08:25:46.382Z,1.00
2022-08-29T08:28:15.572Z,1.00
2022-08-29T08:30:44.374Z,1.00
2022-08-29T08:33:13.078Z,1.00
2022-08-29T08:35:42.809Z,1.00
2022-08-29T08:38:18.571Z,1.00
2022-08-29T08:40:54.482Z,1.00
2022-08-29T08:43:28.617Z,1.00
2022-08-29T08:45:58.016Z,1.00
2022-08-29T08:48:38.714Z,1.00
2022-08-29T08:51:16.150Z,1.00
2022-08-29T08:53:46.945Z,1.00
2022-08-29T08:56:33.136Z,1.00
2022-08-29T08:59:08.275Z,99.90
2022-08-29T09:01:40.723Z,99.90
2022-08-29T09:04:44.435Z,99.90
2022-08-29T09:07:23.937Z,99.90
2022-08-29T09:10:04.920Z,99.90
2022-08-29T09:12:41.573Z,99.90
2022-08-29T09:15:14.186Z,99.90
2022-08-29T09:17:47.769Z,99.90
2022-08-29T09:20:19.724Z,99.90
2022-08-29T09:22:59.287Z,99.90
2022-08-29T09:25:29.082Z,99.90
2022-08-29T09:27:58.257Z,99.90
2022-08-29T09:30:29.224Z,99.90
2022-08-29T09:33:00.737Z,99.90
2022-08-29T09:35:34.720Z,99.90
2022-08-29T09:38:07.559Z,99.90
2022-08-29T09:40:55.250Z,99.90
2022-08-29T09:43:28.222Z,99.90
2022-08-29T09:46:19.162Z,99.90
2022-08-29T09:48:49.185Z,99.90
2022-08-29T09:51:28.277Z,99.90
2022-08-29T09:54:15.123Z,99.90
2022-08-29T09:56:54.824Z,99.90
2022-08-29T09:59:28.447Z,99.90
2022-08-29T10:02:24.945Z,99.90
2022-08-29T10:04:56.740Z,99.90
2022-08-29T10:07:28.847Z,99.90
2022-08-29T10:10:01.774Z,99.90
2022-08-29T10:12:55.685Z,99.90
2022-08-29T10:15:49.238Z,99.90
2022-08-29T10:18:28.591Z,99.90
2022-08-29T10:21:25.032Z,99.90
2022-08-29T10:24:19.523Z,99.90
2022-08-29T10:27:01.598Z,99.90
2022-08-29T10:29:52.645Z,99.90
2022-08-29T10:32:35.181Z,99.90
2022-08-29T10:35:15.768Z,99.90
2022-08-29T10:37:53.185Z,99.90
2022-08-29T10:40:28.059Z,99.90
2022-08-29T10:43:25.213Z,99.90
2022-08-29T10:46:05.226Z,99.90
2022-08-29T10:48:38.719Z,99.90
2022-08-29T10:51:20.106Z,99.90
2022-08-29T10:53:56.983Z,99.90
2022-08-29T10:56:31.506Z,99.90
2022-08-29T10:59:18.255Z,99.90
2022-08-29T11:01:53.131Z,93.40
2022-08-29T11:04:25.864Z,28.40
2022-08-29T11:07:01.469Z,1.00
2022-08-29T11:09:37.756Z,1.00
2022-08-29T11:12:11.164Z,1.00
2022-08-29T11:14:52.815Z,1.00
2022-08-29T11:17:25.830Z,1.00
2022-08-29T11:20:03.106Z,99.90
2022-08-29T11:22:36.829Z,99.90
2022-08-29T11:25:10.451Z,99.90
2022-08-29T11:27:47.561Z,99.90
2022-08-29T11:30:23.902Z,99.90
2022-08-29T11:33:04.531Z,90.20
2022-08-29T11:35:43.728Z,28.70
2022-08-29T11:38:42.000Z,44.30
2022-08-29T11:41:27.267Z,69.80
2022-08-29T11:44:14.136Z,73.80
2022-08-29T11:46:53.357Z,36.90
2022-08-29T11:49:38.581Z,29.70
2022-08-29T11:52:27.480Z,64.00
2022-08-29T11:55:22.660Z,99.90
2022-08-29T11:57:56.692Z,99.90
2022-08-29T12:00:48.799Z,99.90
2022-08-29T12:03:56.821Z,97.40
2022-08-29T12:06:39.835Z,56.40
2022-08-29T12:09:41.305Z,21.80
2022-08-29T12:12:35.739Z,18.60
2022-08-29T12:15:41.733Z,1.40
2022-08-29T12:18:50.565Z,1.00
2022-08-29T12:21:51.580Z,1.00
2022-08-29T12:24:41.505Z,1.00
2022-08-29T12:27:47.637Z,1.00
2022-08-29T12:30:16.450Z,1.00
2022-08-29T12:32:54.775Z,1.00
2022-08-29T12:35:54.442Z,1.00
2022-08-29T12:38:31.425Z,1.00
2022-08-29T12:41:12.801Z,1.00
2022-08-29T12:43:43.912Z,1.00
2022-08-29T12:46:18.361Z,1.00
2022-08-29T12:48:57.457Z,1.00
2022-08-29T12:51:34.997Z,1.00
2022-08-29T12:54:03.337Z,1.00
2022-08-29T12:56:34.184Z,1.00
2022-08-29T12:59:05.500Z,1.00
2022-08-29T13:01:55.921Z,1.00
2022-08-29T13:04:32.047Z,1.00
2022-08-29T13:07:03.564Z,1.00
2022-08-29T13:09:34.805Z,1.00
2022-08-29T13:12:20.420Z,1.00
2022-08-29T13:14:54.441Z,1.00
2022-08-29T13:17:26.359Z,1.00
2022-08-29T13:20:34.966Z,1.00
2022-08-29T13:23:10.996Z,1.00
2022-08-29T13:25:48.811Z,1.00
2022-08-29T13:28:21.739Z,1.00
2022-08-29T13:31:23.185Z,1.00
2022-08-29T13:34:25.161Z,1.00
2022-08-29T13:37:00.154Z,1.00
2022-08-29T13:39:31.903Z,1.00
2022-08-29T13:42:15.956Z,99.90
2022-08-29T13:45:08.760Z,99.90
2022-08-29T13:47:56.588Z,99.90
2022-08-29T13:50:27.339Z,99.90
2022-08-29T13:52:57.369Z,99.90
2022-08-29T13:55:26.471Z,99.90
2022-08-29T13:57:58.442Z,99.90
2022-08-29T14:00:34.989Z,99.90
2022-08-29T14:03:07.084Z,99.90
2022-08-29T14:05:38.804Z,99.90
2022-08-29T14:08:07.748Z,99.90
2022-08-29T14:10:36.478Z,99.90
2022-08-29T14:13:05.593Z,99.90
2022-08-29T14:15:34.820Z,99.90
2022-08-29T14:18:03.224Z,99.90
2022-08-29T14:20:31.624Z,99.90
2022-08-29T14:23:01.649Z,99.90
2022-08-29T14:25:30.030Z,99.90
2022-08-29T14:27:58.266Z,99.90
2022-08-29T14:30:26.921Z,99.90
2022-08-29T14:32:55.288Z,99.90
2022-08-29T14:35:26.602Z,99.90
2022-08-29T14:38:02.856Z,99.90
2022-08-29T14:40:33.766Z,99.90
2022-08-29T14:43:03.291Z,99.90
2022-08-29T14:45:32.541Z,99.90
2022-08-29T14:48:01.224Z,99.90
2022-08-29T14:50:30.163Z,99.90
2022-08-29T14:52:58.694Z,99.90
2022-08-29T14:55:28.740Z,99.90
2022-08-29T14:57:59.075Z,99.90
2022-08-29T15:00:30.225Z,99.90
2022-08-29T15:02:59.984Z,99.90
2022-08-29T15:05:28.438Z,99.90
2022-08-29T15:07:57.031Z,99.90
2022-08-29T15:10:26.249Z,99.90
2022-08-29T15:12:56.131Z,99.90
2022-08-29T15:15:29.532Z,99.90
2022-08-29T15:17:58.967Z,99.90
2022-08-29T15:20:36.119Z,99.90
2022-08-29T15:23:05.365Z,99.90
2022-08-29T15:25:34.350Z,99.90
2022-08-29T15:28:05.572Z,99.90
2022-08-29T15:30:35.008Z,99.90
2022-08-29T15:33:03.915Z,99.90
2022-08-29T15:35:32.597Z,99.90
2022-08-29T15:38:02.599Z,99.90
2022-08-29T15:40:32.361Z,99.90
2022-08-29T15:43:00.807Z,99.90
2022-08-29T15:45:30.919Z,99.90
2022-08-29T15:48:01.367Z,99.90
2022-08-29T15:50:32.275Z,99.90
2022-08-29T15:53:01.004Z,99.90
2022-08-29T15:55:29.386Z,99.90
2022-08-29T15:58:00.899Z,99.90
2022-08-29T16:00:31.265Z,99.90
2022-08-29T16:03:04.667Z,99.90
2022-08-29T16:05:34.327Z,99.90
2022-08-29T16:08:03.248Z,99.90
2022-08-29T16:10:32.227Z,99.90
2022-08-29T16:13:01.528Z,99.90
2022-08-29T16:15:34.185Z,99.90
2022-08-29T16:18:13.499Z,99.90
2022-08-29T16:20:44.031Z,99.90
2022-08-29T16:23:13.981Z,99.90
2022-08-29T16:25:44.320Z,99.90
2022-08-29T16:28:19.758Z,99.90
2022-08-29T16:30:57.285Z,99.90
2022-08-29T16:33:28.967Z,99.90
2022-08-29T16:36:01.279Z,99.90
2022-08-29T16:38:31.224Z,99.90
2022-08-29T16:41:07.605Z,99.90
2022-08-29T16:43:41.091Z,99.90
2022-08-29T16:46:14.762Z,99.90
2022-08-29T16:48:43.501Z,99.90
2022-08-29T16:51:12.573Z,99.90
2022-08-29T16:53:48.397Z,99.90
2022-08-29T16:56:18.538Z,99.90
2022-08-29T16:59:01.453Z,99.90
2022-08-29T17:01:46.636Z,99.90
2022-08-29T17:04:21.045Z,99.90
2022-08-29T17:06:54.292Z,99.90
2022-08-29T17:09:26.608Z,99.90
2022-08-29T17:11:56.263Z,99.90
2022-08-29T17:14:25.951Z,99.90
2022-08-29T17:17:00.547Z,99.90
2022-08-29T17:19:29.272Z,99.90
2022-08-29T17:22:02.007Z,99.90
2022-08-29T17:24:32.800Z,99.90
2022-08-29T17:27:02.774Z,99.90
2022-08-29T17:29:31.302Z,99.90
2022-08-29T17:32:01.059Z,99.90
2022-08-29T17:34:29.339Z,99.90
2022-08-29T17:36:57.710Z,99.90
2022-08-29T17:39:29.266Z,99.90
2022-08-29T17:41:58.691Z,99.90
2022-08-29T17:44:28.846Z,99.90
2022-08-29T17:46:57.161Z,99.90
2022-08-29T17:49:27.707Z,99.90
2022-08-29T17:51:56.098Z,99.90
2022-08-29T17:54:25.599Z,99.90
2022-08-29T17:56:56.485Z,99.90
2022-08-29T17:59:27.372Z,99.90
2022-08-29T18:02:00.392Z,99.90
2022-08-29T18:04:31.177Z,99.90
2022-08-29T18:07:00.105Z,1.00
2022-08-29T18:09:29.095Z,1.00
2022-08-29T18:11:58.469Z,1.00
2022-08-29T18:14:31.303Z,1.00
2022-08-29T18:17:00.130Z,1.00
2022-08-29T18:19:29.967Z,1.00
2022-08-29T18:21:58.830Z,1.00
2022-08-29T18:27:55.550Z,1.00
2022-08-29T18:39:13.863Z,1.00
2022-08-29T18:41:53.176Z,1.00
2022-08-29T18:44:21.503Z,1.00
2022-08-29T18:46:53.206Z,1.00
2022-08-29T18:49:41.434Z,1.00
2022-08-29T18:52:11.648Z,1.00
2022-08-29T18:54:41.169Z,1.00
2022-08-29T18:57:10.768Z,1.00
2022-08-29T18:59:46.822Z,1.00
2022-08-29T19:02:16.002Z,1.00
2022-08-29T19:04:44.978Z,1.00
2022-08-29T19:07:24.173Z,1.00
2022-08-29T19:09:53.043Z,3.40
2022-08-29T19:12:26.565Z,35.00
2022-08-29T19:14:58.013Z,84.80
2022-08-29T19:17:27.922Z,97.30
2022-08-29T19:20:16.774Z,99.90
2022-08-29T19:22:49.283Z,99.90
2022-08-29T19:25:19.834Z,99.90
2022-08-29T19:27:55.986Z,99.90
2022-08-29T19:30:53.912Z,99.90
2022-08-29T19:33:33.960Z,99.90
2022-08-29T19:36:07.170Z,99.90
2022-08-29T19:38:44.369Z,99.90
2022-08-29T19:41:13.438Z,99.90
2022-08-29T19:43:42.186Z,99.90
2022-08-29T19:46:16.440Z,99.90
2022-08-29T19:48:48.668Z,99.90
2022-08-29T19:51:25.033Z,99.90
2022-08-29T19:54:06.093Z,99.90
2022-08-29T19:56:46.719Z,99.90
2022-08-29T19:59:18.160Z,99.90
2022-08-29T20:01:47.982Z,99.90
2022-08-29T20:04:17.258Z,99.90
2022-08-29T20:06:47.566Z,99.90
2022-08-29T20:11:48.675Z,99.90
2022-08-29T20:14:17.818Z,99.90
2022-08-29T20:16:47.245Z,99.90
2022-08-29T20:19:16.085Z,99.90
2022-08-29T20:21:44.923Z,99.90
2022-08-29T20:24:15.773Z,99.90
2022-08-29T20:26:49.572Z,99.90
2022-08-29T20:29:20.602Z,99.90
2022-08-29T20:31:57.264Z,99.90
2022-08-29T20:34:29.279Z,99.90
2022-08-29T20:37:11.130Z,99.90
2022-08-29T20:39:46.503Z,99.90
2022-08-29T20:42:18.425Z,99.90
2022-08-29T20:44:46.822Z,99.90
2022-08-29T20:47:27.503Z,99.90
2022-08-29T20:50:03.885Z,99.90
2022-08-29T20:52:32.142Z,99.90
2022-08-29T20:55:00.313Z,1.00
2022-08-29T20:57:29.935Z,1.00
2022-08-29T20:59:59.770Z,1.00
2022-08-29T21:02:45.407Z,1.00
2022-08-29T21:05:31.407Z,1.00
2022-08-29T21:07:59.573Z,1.00
2022-08-29T21:10:28.065Z,1.00
2022-08-29T21:12:57.962Z,1.00
2022-08-29T21:15:26.905Z,1.00
2022-08-29T21:17:55.704Z,1.00
2022-08-29T21:20:24.127Z,1.00
2022-08-29T21:22:52.463Z,1.00
2022-08-29T21:25:20.979Z,1.00
2022-08-29T21:27:49.507Z,1.00
2022-08-29T21:30:19.503Z,1.00
2022-08-29T21:32:48.258Z,4.60
2022-08-29T21:35:17.517Z,17.90
2022-08-29T21:37:45.717Z,38.00
2022-08-29T21:40:14.394Z,41.30
2022-08-29T21:42:43.046Z,58.40
2022-08-29T21:45:12.397Z,76.80
2022-08-29T21:47:42.389Z,94.70
2022-08-29T21:50:11.578Z,99.90
2022-08-29T21:52:39.987Z,99.90
2022-08-29T21:55:09.527Z,99.90
2022-08-29T21:57:51.912Z,99.90
2022-08-29T22:00:21.391Z,99.90
2022-08-29T22:02:51.132Z,99.90
2022-08-29T22:05:20.258Z,99.90
2022-08-29T22:07:49.402Z,99.90
2022-08-29T22:10:22.016Z,99.90
2022-08-29T22:12:50.268Z,99.90
2022-08-29T22:15:36.802Z,99.90
2022-08-29T22:18:06.939Z,99.90
2022-08-29T22:20:36.557Z,99.90
2022-08-29T22:23:05.701Z,99.90
2022-08-29T22:25:34.521Z,99.90
2022-08-29T22:28:03.557Z,99.90
2022-08-29T22:30:32.664Z,99.90
2022-08-29T22:33:01.893Z,99.90
2022-08-29T22:35:31.900Z,99.90
2022-08-29T22:38:00.893Z,99.90
2022-08-29T22:40:30.010Z,99.90
2022-08-29T22:42:58.463Z,99.90
2022-08-29T22:45:26.716Z,99.90
2022-08-29T22:47:55.111Z,99.90
2022-08-29T22:50:26.015Z,99.90
2022-08-29T22:52:58.358Z,99.90
2022-08-29T22:57:54.880Z,99.90
2022-08-29T23:00:26.632Z,99.90
2022-08-29T23:02:55.341Z,99.90
2022-08-29T23:05:25.190Z,99.90
2022-08-29T23:07:53.634Z,99.90
2022-08-29T23:10:23.530Z,99.90
2022-08-29T23:12:52.057Z,99.90
2022-08-29T23:24:23.547Z,99.90
2022-08-29T23:26:53.206Z,99.90
2022-08-29T23:29:21.678Z,99.90
2022-08-29T23:31:50.296Z,99.90
2022-08-29T23:34:18.609Z,99.90
2022-08-29T23:36:46.877Z,99.90
2022-08-29T23:39:15.150Z,99.90
2022-08-29T23:41:43.622Z,99.90
2022-08-29T23:44:13.317Z,99.90
2022-08-29T23:46:41.631Z,99.90
2022-08-29T23:49:09.915Z,99.90
2022-08-29T23:51:38.317Z,99.90
2022-08-29T23:54:06.645Z,99.90
2022-08-29T23:56:38.149Z,99.90
2022-08-29T23:59:06.674Z,99.90
